createdAt,value
2023-01-02T00:02:50.750Z,3.37
2023-01-02T00:06:03.682Z,3.73
2023-01-02T00:09:15.773Z,3.65
2023-01-02T00:12:27.725Z,4.70
2023-01-02T00:15:41.704Z,4.45
2023-01-02T00:18:53.759Z,4.75
2023-01-02T00:22:05.699Z,4.90
2023-01-02T00:25:30.741Z,4.40
2023-01-02T00:28:30.774Z,5.15
2023-01-02T00:31:56.790Z,5.23
2023-01-02T00:34:59.760Z,4.63
2023-01-02T00:38:12.782Z,5.63
2023-01-02T00:41:13.808Z,4.70
2023-01-02T00:44:26.856Z,5.70
2023-01-02T00:47:40.874Z,4.90
2023-01-02T00:50:56.878Z,5.17
2023-01-02T00:53:57.899Z,4.70
2023-01-02T00:57:09.914Z,4.75
2023-01-02T01:00:09.877Z,4.65
2023-01-02T01:03:35.939Z,4.75
2023-01-02T01:06:35.909Z,4.55
2023-01-02T01:09:47.960Z,5.00
2023-01-02T01:12:59.880Z,5.10
2023-01-02T01:16:27.970Z,4.60
2023-01-02T01:19:41.923Z,3.90
2023-01-02T01:22:55.024Z,4.80
2023-01-02T01:25:54.985Z,5.50
2023-01-02T01:29:09.941Z,4.90
2023-01-02T01:32:10.000Z,4.55
2023-01-02T01:35:35.942Z,4.90
2023-01-02T01:38:36.011Z,6.00
2023-01-02T01:41:47.978Z,4.15
2023-01-02T01:45:06.981Z,4.60
2023-01-02T01:48:32.050Z,4.70
2023-01-02T01:51:46.007Z,4.90
2023-01-02T01:55:10.073Z,4.33
2023-01-02T01:58:22.057Z,3.80
2023-01-02T02:01:47.155Z,4.73
2023-01-02T02:05:11.120Z,4.90
2023-01-02T02:08:26.106Z,4.30
2023-01-02T02:11:50.164Z,4.63
2023-01-02T02:14:50.084Z,4.35
2023-01-02T02:18:15.163Z,4.10
2023-01-02T02:21:31.179Z,4.07
2023-01-02T02:24:59.109Z,3.80
2023-01-02T02:28:15.134Z,3.83
2023-01-02T02:31:41.152Z,4.50
2023-01-02T02:34:53.192Z,3.53
2023-01-02T02:38:18.212Z,4.03
2023-01-02T02:41:30.139Z,4.63
2023-01-02T02:44:55.222Z,3.93
2023-01-02T02:48:09.198Z,3.87
2023-01-02T02:51:33.191Z,3.90
2023-01-02T02:54:48.259Z,3.70
2023-01-02T02:58:12.207Z,3.43
2023-01-02T03:01:30.410Z,3.40
2023-01-02T03:04:53.226Z,3.50
2023-01-02T03:08:07.256Z,4.25
2023-01-02T03:11:31.261Z,4.00
2023-01-02T03:14:45.343Z,3.37
2023-01-02T03:18:11.275Z,4.20
2023-01-02T03:21:31.389Z,3.85
2023-01-02T03:24:53.338Z,3.67
2023-01-02T03:28:05.352Z,3.43
2023-01-02T03:31:29.306Z,3.55
2023-01-02T03:34:41.322Z,3.73
2023-01-02T03:38:08.459Z,3.60
2023-01-02T03:41:20.377Z,3.30
2023-01-02T03:44:44.396Z,3.50
2023-01-02T03:47:57.382Z,2.83
2023-01-02T03:51:21.417Z,3.80
2023-01-02T03:54:37.424Z,3.60
2023-01-02T03:58:02.402Z,4.05
2023-01-02T04:01:14.458Z,4.40
2023-01-02T04:04:38.434Z,3.20
2023-01-02T04:07:50.409Z,3.50
2023-01-02T04:11:16.498Z,3.30
2023-01-02T04:14:28.496Z,3.43
2023-01-02T04:17:53.424Z,3.00
2023-01-02T04:21:08.555Z,3.50
2023-01-02T04:24:36.498Z,3.50
2023-01-02T04:27:50.531Z,3.20
2023-01-02T04:31:14.566Z,3.60
2023-01-02T04:34:26.563Z,2.65
2023-01-02T04:37:51.621Z,3.00
2023-01-02T04:41:03.553Z,3.45
2023-01-02T04:44:29.544Z,3.43
2023-01-02T04:47:32.624Z,2.63
2023-01-02T04:50:44.660Z,3.40
2023-01-02T04:53:44.613Z,2.90
2023-01-02T04:56:57.643Z,2.83
2023-01-02T05:00:11.679Z,3.50
2023-01-02T05:03:24.697Z,3.00
2023-01-02T05:06:24.605Z,2.97
2023-01-02T05:09:39.682Z,3.30
2023-01-02T05:12:39.632Z,3.20
2023-01-02T05:16:04.672Z,3.07
2023-01-02T05:19:16.621Z,3.03
2023-01-02T05:22:34.629Z,3.00
2023-01-02T05:25:34.784Z,2.90
2023-01-02T05:28:46.732Z,3.17
2023-01-02T05:32:00.687Z,2.77
2023-01-02T05:35:13.722Z,3.00
2023-01-02T05:38:25.718Z,2.53
2023-01-02T05:41:37.727Z,2.70
2023-01-02T05:44:52.803Z,2.37
2023-01-02T05:48:20.815Z,3.20
2023-01-02T05:51:32.775Z,2.87
2023-01-02T05:54:44.725Z,2.40
2023-01-02T05:57:44.762Z,2.47
2023-01-02T06:00:56.783Z,3.30
2023-01-02T06:04:23.862Z,2.40
2023-01-02T06:07:23.881Z,2.80
2023-01-02T06:10:35.839Z,2.73
2023-01-02T06:13:35.925Z,2.97
2023-01-02T06:16:47.867Z,2.85
2023-01-02T06:20:01.909Z,2.97
2023-01-02T06:23:13.916Z,3.23
2023-01-02T06:26:31.151Z,2.70
2023-01-02T06:29:38.900Z,2.60
2023-01-02T06:32:38.903Z,2.63
2023-01-02T06:36:05.937Z,2.95
2023-01-02T06:39:20.925Z,2.40
2023-01-02T06:42:33.296Z,2.13
2023-01-02T06:45:32.981Z,2.70
2023-01-02T06:48:56.968Z,2.30
2023-01-02T06:52:13.923Z,2.50
2023-01-02T06:55:26.003Z,2.25
2023-01-02T06:58:26.015Z,2.20
2023-01-02T07:01:51.116Z,2.40
2023-01-02T07:04:52.045Z,2.13
2023-01-02T07:08:16.965Z,2.90
2023-01-02T07:11:33.058Z,2.30
2023-01-02T07:14:46.038Z,2.80
2023-01-02T07:17:58.081Z,2.20
2023-01-02T07:21:10.011Z,2.90
2023-01-02T07:24:24.083Z,2.93
2023-01-02T07:27:36.070Z,2.80
2023-01-02T07:30:36.063Z,2.30
2023-01-02T07:33:50.134Z,2.40
2023-01-02T07:36:50.212Z,2.45
2023-01-02T07:40:17.095Z,2.33
2023-01-02T07:43:17.138Z,2.20
2023-01-02T07:46:42.187Z,2.40
2023-01-02T07:49:42.120Z,1.53
2023-01-02T07:52:57.206Z,2.00
2023-01-02T07:56:11.190Z,1.70
2023-01-02T07:59:23.158Z,1.80
2023-01-02T08:02:26.323Z,1.40
2023-01-02T08:05:38.220Z,1.20
2023-01-02T08:08:38.251Z,1.80
2023-01-02T08:12:08.170Z,1.33
2023-01-02T08:15:08.184Z,1.20
2023-01-02T08:18:23.224Z,1.25
2023-01-02T08:21:35.263Z,1.50
2023-01-02T08:24:50.243Z,1.40
2023-01-02T08:28:04.297Z,1.80
2023-01-02T08:31:32.256Z,1.40
2023-01-02T08:34:32.321Z,1.43
2023-01-02T08:37:50.131Z,1.37
2023-01-02T08:40:44.270Z,1.80
2023-01-02T08:44:11.260Z,1.77
2023-01-02T08:47:14.371Z,1.70
2023-01-02T08:50:27.319Z,2.20
2023-01-02T08:53:27.343Z,1.65
2023-01-02T08:56:51.353Z,2.10
2023-01-02T09:00:04.327Z,2.27
2023-01-02T09:03:17.415Z,1.75
2023-01-02T09:06:22.147Z,2.00
2023-01-02T09:09:42.384Z,1.50
2023-01-02T09:12:42.434Z,1.83
2023-01-02T09:16:10.468Z,1.95
2023-01-02T09:19:22.438Z,1.85
2023-01-02T09:22:34.480Z,1.80
2023-01-02T09:25:34.439Z,1.97
2023-01-02T09:28:58.419Z,1.87
2023-01-02T09:32:12.481Z,1.90
2023-01-02T09:35:24.498Z,1.80
2023-01-02T09:38:36.439Z,1.67
2023-01-02T09:42:00.542Z,1.70
2023-01-02T09:45:12.524Z,1.67
2023-01-02T09:48:38.576Z,1.90
2023-01-02T09:51:50.537Z,1.47
2023-01-02T09:55:14.533Z,1.70
2023-01-02T09:58:26.529Z,1.70
2023-01-02T10:01:51.544Z,1.70
2023-01-02T10:05:20.610Z,1.60
2023-01-02T10:08:33.590Z,1.43
2023-01-02T10:12:11.569Z,1.40
2023-01-02T10:15:23.586Z,1.50
2023-01-02T10:18:49.624Z,1.10
2023-01-02T10:22:02.613Z,1.30
2023-01-02T10:25:30.660Z,1.20
2023-01-02T10:28:42.690Z,1.67
2023-01-02T10:32:06.675Z,1.20
2023-01-02T10:35:18.717Z,1.40
2023-01-02T10:38:45.635Z,1.20
2023-01-02T10:41:57.652Z,1.57
2023-01-02T10:45:09.730Z,1.30
2023-01-02T10:48:09.720Z,1.20
2023-01-02T10:51:33.723Z,1.10
2023-01-02T10:55:01.766Z,1.30
2023-01-02T10:58:28.742Z,1.20
2023-01-02T11:01:40.871Z,1.37
2023-01-02T11:05:04.740Z,1.27
2023-01-02T11:08:16.810Z,1.10
2023-01-02T11:11:42.835Z,1.27
2023-01-02T11:17:35.667Z,1.00
2023-01-02T11:20:59.531Z,1.15
2023-01-02T11:24:00.549Z,1.23
2023-01-02T11:27:25.572Z,1.20
2023-01-02T11:30:46.606Z,1.20
2023-01-02T11:34:12.587Z,1.10
2023-01-02T11:37:28.604Z,0.90
2023-01-02T11:40:53.697Z,1.60
2023-01-02T11:44:05.645Z,1.35
2023-01-02T11:47:30.618Z,1.27
2023-01-02T11:50:46.616Z,1.37
2023-01-02T11:53:59.693Z,1.40
2023-01-02T11:57:16.959Z,1.03
2023-01-02T12:00:36.689Z,1.40
2023-01-02T12:04:00.712Z,1.13
2023-01-02T12:07:16.742Z,1.33
2023-01-02T12:10:45.663Z,1.40
2023-01-02T12:14:02.751Z,1.30
2023-01-02T12:17:26.680Z,1.50
2023-01-02T12:20:42.708Z,1.70
2023-01-02T12:24:22.702Z,1.97
2023-01-02T12:27:36.811Z,1.77
2023-01-02T12:31:00.781Z,1.95
2023-01-02T12:34:16.809Z,1.70
2023-01-02T12:37:43.739Z,1.70
2023-01-02T12:40:59.808Z,1.90
2023-01-02T12:44:33.587Z,1.90
2023-01-02T12:47:48.784Z,1.65
2023-01-02T12:51:14.869Z,2.10
2023-01-02T12:54:29.821Z,1.93
2023-01-02T12:57:53.937Z,1.70
2023-01-02T13:01:10.960Z,1.55
2023-01-02T13:04:42.860Z,1.40
2023-01-02T13:07:57.885Z,1.30
2023-01-02T13:11:24.931Z,1.20
2023-01-02T13:14:37.912Z,1.60
2023-01-02T13:18:06.919Z,1.47
2023-01-02T13:21:20.898Z,1.40
2023-01-02T13:24:45.954Z,1.40
2023-01-02T13:28:00.980Z,1.17
2023-01-02T13:31:45.906Z,1.20
2023-01-02T13:34:38.931Z,1.50
2023-01-02T13:38:03.962Z,1.33
2023-01-02T13:41:18.961Z,1.70
2023-01-02T13:44:43.061Z,1.70
2023-01-02T13:47:56.113Z,1.30
2023-01-02T13:51:24.983Z,1.10
2023-01-02T13:54:41.047Z,1.13
2023-01-02T13:57:55.074Z,1.47
2023-01-02T14:01:07.123Z,1.60
2023-01-02T14:04:46.147Z,1.67
2023-01-02T14:08:10.035Z,1.10
2023-01-02T14:11:55.398Z,1.15
2023-01-02T14:14:49.117Z,1.40
2023-01-02T14:18:16.110Z,1.65
2023-01-02T14:21:28.122Z,1.40
2023-01-02T14:24:53.188Z,1.43
2023-01-02T14:28:14.186Z,1.77
2023-01-02T14:31:40.407Z,1.10
2023-01-02T14:34:53.168Z,1.70
2023-01-02T14:38:17.181Z,1.40
2023-01-02T14:41:19.565Z,1.20
2023-01-02T14:44:46.169Z,1.20
2023-01-02T14:47:59.146Z,1.60
2023-01-02T14:51:24.191Z,1.80
2023-01-02T14:54:36.201Z,2.07
2023-01-02T14:58:01.208Z,1.37
2023-01-02T15:01:14.348Z,2.00
2023-01-02T15:04:39.266Z,1.60
2023-01-02T15:07:51.255Z,1.17
2023-01-02T15:11:24.049Z,1.37
2023-01-02T15:14:38.305Z,1.80
2023-01-02T15:18:03.287Z,1.90
2023-01-02T15:21:15.328Z,2.10
2023-01-02T15:24:46.323Z,2.50
2023-01-02T15:27:50.407Z,1.70
2023-01-02T15:31:22.323Z,1.80
2023-01-02T15:34:36.392Z,1.70
2023-01-02T15:38:00.347Z,2.00
2023-01-02T15:41:12.364Z,2.15
2023-01-02T15:44:45.089Z,1.90
2023-01-02T15:47:45.401Z,2.10
2023-01-02T15:51:11.402Z,2.10
2023-01-02T15:54:14.456Z,1.97
2023-01-02T15:57:38.396Z,2.60
2023-01-02T16:00:54.480Z,1.90
2023-01-02T16:04:18.383Z,1.90
2023-01-02T16:07:41.458Z,2.20
2023-01-02T16:11:05.419Z,1.87
2023-01-02T16:14:32.431Z,1.63
2023-01-02T16:17:57.462Z,1.90
2023-01-02T16:21:09.499Z,1.43
2023-01-02T16:24:35.581Z,1.73
2023-01-02T16:27:48.526Z,1.80
2023-01-02T16:31:12.517Z,1.63
2023-01-02T16:34:36.528Z,1.80
2023-01-02T16:37:52.571Z,1.53
2023-01-02T16:41:06.519Z,1.60
2023-01-02T16:44:30.543Z,1.50
2023-01-02T16:47:30.538Z,1.50
2023-01-02T16:50:43.607Z,1.60
2023-01-02T16:53:55.623Z,1.60
2023-01-02T16:57:23.630Z,1.70
2023-01-02T17:00:42.905Z,1.50
2023-01-02T17:03:48.571Z,1.55
2023-01-02T17:06:51.667Z,1.65
2023-01-02T17:10:03.700Z,1.40
2023-01-02T17:13:17.628Z,1.37
2023-01-02T17:16:44.655Z,1.37
2023-01-02T17:19:44.688Z,1.80
2023-01-02T17:22:59.636Z,1.80
2023-01-02T17:26:11.681Z,1.87
2023-01-02T17:29:38.730Z,1.60
2023-01-02T17:32:38.740Z,1.40
2023-01-02T17:36:02.673Z,1.50
2023-01-02T17:39:02.702Z,2.00
2023-01-02T17:42:14.763Z,1.73
2023-01-02T17:45:28.818Z,1.50
2023-01-02T17:48:40.790Z,1.20
2023-01-02T17:51:40.791Z,1.30
2023-01-02T17:54:56.931Z,1.30
2023-01-02T17:57:55.773Z,1.47
2023-01-02T18:01:21.914Z,1.33
2023-01-02T18:04:34.769Z,1.47
2023-01-02T18:07:34.840Z,1.50
2023-01-02T18:10:59.800Z,1.63
2023-01-02T18:14:11.794Z,1.37
2023-01-02T18:17:40.854Z,1.67
2023-01-02T18:20:43.856Z,1.77
2023-01-02T18:24:07.923Z,1.63
2023-01-02T18:27:34.870Z,1.40
2023-01-02T18:30:59.955Z,1.53
2023-01-02T18:34:16.812Z,1.53
2023-01-02T18:37:40.900Z,1.30
2023-01-02T18:41:06.920Z,1.33
2023-01-02T18:44:31.920Z,1.50
2023-01-02T18:47:46.948Z,1.53
2023-01-02T18:51:12.931Z,1.30
2023-01-02T18:54:27.930Z,1.77
2023-01-02T18:57:53.976Z,1.57
2023-01-02T19:01:09.016Z,1.27
2023-01-02T19:04:40.943Z,1.70
2023-01-02T19:07:54.019Z,1.45
2023-01-02T19:11:18.003Z,1.40
2023-01-02T19:14:42.003Z,1.37
2023-01-02T19:17:53.987Z,1.50
2023-01-02T19:21:06.057Z,1.25
2023-01-02T19:24:33.077Z,1.77
2023-01-02T19:27:47.055Z,1.60
2023-01-02T19:31:11.155Z,1.80
2023-01-02T19:34:42.168Z,1.53
2023-01-02T19:38:07.038Z,1.43
2023-01-02T19:41:21.206Z,1.20
2023-01-02T19:44:33.089Z,1.50
2023-01-02T19:47:45.171Z,1.67
2023-01-02T19:51:09.212Z,1.90
2023-01-02T19:54:22.133Z,2.07
2023-01-02T19:57:48.137Z,2.00
2023-01-02T20:00:48.166Z,1.53
2023-01-02T20:04:00.209Z,1.97
2023-01-02T20:07:12.128Z,1.80
2023-01-02T20:10:36.153Z,2.30
2023-01-02T20:13:50.238Z,1.70
2023-01-02T20:17:03.228Z,2.00
2023-01-02T20:20:15.182Z,2.23
2023-01-02T20:23:27.240Z,1.97
2023-01-02T20:26:27.220Z,1.70
2023-01-02T20:29:52.221Z,2.80
2023-01-02T20:33:04.214Z,1.97
2023-01-02T20:36:16.324Z,1.90
2023-01-02T20:39:28.307Z,1.97
2023-01-02T20:42:40.306Z,1.90
2023-01-02T20:45:53.378Z,2.00
2023-01-02T20:49:17.296Z,2.40
2023-01-02T20:52:18.318Z,2.33
2023-01-02T20:55:30.372Z,2.23
2023-01-02T20:58:45.311Z,2.10
2023-01-02T21:02:11.469Z,1.97
2023-01-02T21:05:11.329Z,2.60
2023-01-02T21:08:23.432Z,2.97
2023-01-02T21:11:26.427Z,3.17
2023-01-02T21:14:38.433Z,2.67
2023-01-02T21:17:52.380Z,2.40
2023-01-02T21:21:16.402Z,2.33
2023-01-02T21:24:28.459Z,2.33
2023-01-02T21:27:40.487Z,2.07
2023-01-02T21:30:40.520Z,2.17
2023-01-02T21:34:07.497Z,2.40
2023-01-02T21:37:07.433Z,1.97
2023-01-02T21:40:20.496Z,2.13
2023-01-02T21:43:32.494Z,2.60
2023-01-02T21:46:44.506Z,2.30
2023-01-02T21:49:58.505Z,2.20
2023-01-02T21:53:10.528Z,2.57
2023-01-02T21:56:10.570Z,2.43
2023-01-02T21:59:23.503Z,2.10
2023-01-02T22:02:32.897Z,2.20
2023-01-02T22:05:50.553Z,2.53
2023-01-02T22:08:50.559Z,2.87
2023-01-02T22:12:09.610Z,2.57
2023-01-02T22:15:21.610Z,2.87
2023-01-02T22:18:37.927Z,2.50
2023-01-02T22:21:47.557Z,2.43
2023-01-02T22:25:11.596Z,2.87
2023-01-02T22:28:23.571Z,2.70
2023-01-02T22:31:50.658Z,2.23
2023-01-02T22:35:02.595Z,2.80
2023-01-02T22:38:28.646Z,3.03
2023-01-02T22:41:40.681Z,2.80
2023-01-02T22:45:07.724Z,3.00
2023-01-02T22:48:22.660Z,2.50
2023-01-02T22:52:05.835Z,2.73
2023-01-02T22:55:00.686Z,3.43
2023-01-02T22:58:12.729Z,2.50
2023-01-02T23:01:24.761Z,2.30
2023-01-02T23:04:48.690Z,2.90
2023-01-02T23:07:48.751Z,3.10
2023-01-02T23:11:15.784Z,2.60
2023-01-02T23:14:39.735Z,2.60
2023-01-02T23:17:57.418Z,3.15
2023-01-02T23:21:00.788Z,2.90
2023-01-02T23:24:24.739Z,2.77
2023-01-02T23:27:37.790Z,2.83
2023-01-02T23:30:49.890Z,2.90
2023-01-02T23:34:04.801Z,3.40
2023-01-02T23:37:19.907Z,3.00
2023-01-02T23:40:20.839Z,2.70
2023-01-02T23:43:50.897Z,3.10
2023-01-02T23:46:50.920Z,3.67
2023-01-02T23:50:02.905Z,2.93
2023-01-02T23:53:02.841Z,3.30
2023-01-02T23:56:26.935Z,2.97
2023-01-02T23:59:51.872Z,3.13
